Time;durP1;ratioP1;P1;durP2;ratioP2;P2;SDS_P1;SDS_P2;PMS_P1;PMS_P2;Temp;Humidity;BMP_temperature;BMP_pressure;BME280_temperature;BME280_humidity;BME280_pressure;Samples;Min_cycle;Max_cycle;Signal;HPM_P1;HPM_P2
2023/02/17 00:00:56;;;;;;;;;31.00;29.00;23.80;34.70;;;;;;110134;1255;45862;-61
2023/02/17 00:03:23;;;;;;;;;33.00;30.00;23.70;34.20;;;;;;110078;1254;56441;-62
2023/02/17 00:05:51;;;;;;;;;34.50;30.50;23.70;34.30;;;;;;110095;1254;54052;-62
2023/02/17 00:08:18;;;;;;;;;30.67;29.00;23.60;34.60;;;;;;110176;1254;49594;-67
2023/02/17 00:10:54;;;;;;;;;35.00;31.50;23.60;34.60;;;;;;110005;1254;49480;-63
2023/02/17 00:13:21;;;;;;;;;28.00;26.33;23.60;34.90;;;;;;110010;1254;45659;-61
2023/02/17 00:15:48;;;;;;;;;38.75;30.00;23.50;34.80;;;;;;109968;1254;56108;-61
2023/02/17 00:18:15;;;;;;;;;35.00;29.00;23.50;34.90;;;;;;109976;1254;53706;-62
2023/02/17 00:20:42;;;;;;;;;37.00;32.00;23.40;35.00;;;;;;109978;1250;50089;-62
2023/02/17 00:23:09;;;;;;;;;34.50;28.00;23.30;35.10;;;;;;109996;1255;49028;-62
2023/02/17 00:25:37;;;;;;;;;33.00;31.00;23.30;35.20;;;;;;110016;1255;46618;-61
2023/02/17 00:28:04;;;;;;;;;32.00;30.50;23.30;35.20;;;;;;109987;1250;55608;-61
2023/02/17 00:30:31;;;;;;;;;32.00;30.50;23.20;35.40;;;;;;110039;1250;54016;-61
2023/02/17 00:32:58;;;;;;;;;36.00;30.00;23.20;35.40;;;;;;109940;1251;49806;-61
2023/02/17 00:35:26;;;;;;;;;30.00;27.00;23.20;35.30;;;;;;110024;1255;50056;-61
2023/02/17 00:37:52;;;;;;;;;31.00;29.00;23.10;35.30;;;;;;109976;1254;45371;-61
2023/02/17 00:40:20;;;;;;;;;34.00;30.50;23.10;35.30;;;;;;109982;1254;55916;-61
2023/02/17 00:42:47;;;;;;;;;33.00;28.33;23.10;35.90;;;;;;109955;1250;54724;-63
2023/02/17 00:45:15;;;;;;;;;32.00;29.00;23.00;35.40;;;;;;109981;1250;49839;-61
2023/02/17 00:47:42;;;;;;;;;35.00;31.00;23.00;35.40;;;;;;110180;1250;49528;-61
2023/02/17 00:50:09;;;;;;;;;33.50;29.00;23.00;35.60;;;;;;110053;1255;45902;-61
2023/02/17 00:52:36;;;;;;;;;33.00;31.00;22.90;35.70;;;;;;109945;1254;55530;-62
2023/02/17 00:55:03;;;;;;;;;36.33;32.67;22.90;35.50;;;;;;110019;1250;54325;-61
2023/02/17 00:57:31;;;;;;;;;29.33;28.00;22.80;35.50;;;;;;110033;1254;50241;-62
2023/02/17 00:59:58;;;;;;;;;33.00;29.00;22.80;35.60;;;;;;109936;1254;49725;-61
2023/02/17 01:02:25;;;;;;;;;31.00;30.00;22.80;35.70;;;;;;109917;1253;46202;-62
2023/02/17 01:04:52;;;;;;;;;33.50;29.00;22.80;35.70;;;;;;109963;1254;56449;-61
2023/02/17 01:07:19;;;;;;;;;34.00;29.00;22.70;35.70;;;;;;110000;1250;54653;-61
2023/02/17 01:09:46;;;;;;;;;35.00;32.00;22.70;35.90;;;;;;109948;1254;49266;-62
2023/02/17 01:12:13;;;;;;;;;29.00;26.00;22.70;35.80;;;;;;109934;1251;49955;-62
2023/02/17 01:14:40;;;;;;;;;30.75;28.00;22.60;35.70;;;;;;109981;1250;46140;-61
2023/02/17 01:17:07;;;;;;;;;34.50;31.00;22.60;35.80;;;;;;110053;1254;55353;-61
2023/02/17 01:19:34;;;;;;;;;35.00;30.00;22.60;35.90;;;;;;109985;1254;54262;-62
2023/02/17 01:22:00;;;;;;;;;30.50;29.00;22.60;36.00;;;;;;109969;1254;49833;-61
2023/02/17 01:24:27;;;;;;;;;28.50;27.00;22.50;35.70;;;;;;109974;1252;49062;-62
2023/02/17 01:26:54;;;;;;;;;33.00;31.00;22.50;35.80;;;;;;109957;1254;46175;-62
2023/02/17 01:29:21;;;;;;;;;36.33;31.00;22.50;36.00;;;;;;109942;1256;55342;-62
2023/02/17 01:31:48;;;;;;;;;32.00;29.00;22.40;35.80;;;;;;110043;1256;54036;-62
2023/02/17 01:34:15;;;;;;;;;32.50;29.50;22.40;35.70;;;;;;110009;1250;49077;-62
2023/02/17 01:36:42;;;;;;;;;30.67;27.67;22.40;35.80;;;;;;109941;1256;49917;-62
2023/02/17 01:39:12;;;;;;;;;27.50;26.50;22.30;35.70;;;;;;109918;1252;46036;-61
2023/02/17 01:41:39;;;;;;;;;34.67;30.00;22.30;35.90;;;;;;109945;1250;56000;-62
2023/02/17 01:44:16;;;;;;;;;34.50;31.00;22.30;35.80;;;;;;109957;1254;53979;-61
2023/02/17 01:46:45;;;;;;;;;35.00;30.00;22.20;35.80;;;;;;109958;1254;49808;-62
2023/02/17 01:49:18;;;;;;;;;31.00;30.00;22.20;35.80;;;;;;110104;1250;49401;-61
2023/02/17 01:51:49;;;;;;;;;36.67;31.00;22.20;35.80;;;;;;110009;1250;45851;-62
2023/02/17 01:54:21;;;;;;;;;33.00;28.00;22.10;35.90;;;;;;110060;1254;56527;-61
2023/02/17 01:56:49;;;;;;;;;29.75;27.75;22.10;35.80;;;;;;109887;1253;54306;-62
2023/02/17 01:59:20;;;;;;;;;33.00;30.00;22.10;35.80;;;;;;109871;1252;50721;-62
2023/02/17 02:01:52;;;;;;;;;31.00;28.00;22.10;35.80;;;;;;109966;1254;49784;-62
2023/02/17 02:04:21;;;;;;;;;28.50;27.00;22.00;35.90;;;;;;110018;1250;45937;-62
2023/02/17 02:06:49;;;;;;;;;35.00;29.00;22.00;35.80;;;;;;109968;1250;56011;-62
2023/02/17 02:09:46;;;;;;;;;30.00;28.00;22.00;35.80;;;;;;109978;1251;53829;-61
2023/02/17 02:12:25;;;;;;;;;31.00;29.00;21.90;35.70;;;;;;109799;1250;50798;-62
2023/02/17 02:14:56;;;;;;;;;31.00;29.00;21.90;35.70;;;;;;110018;1256;49128;-62
2023/02/17 02:17:25;;;;;;;;;34.00;32.00;21.90;35.90;;;;;;110093;1253;46582;-61
2023/02/17 02:20:11;;;;;;;;;31.33;29.33;21.90;35.70;;;;;;109938;1254;55507;-61
2023/02/17 02:23:20;;;;;;;;;28.00;27.00;21.90;35.70;;;;;;109974;1250;53410;-61
2023/02/17 02:26:18;;;;;;;;;30.50;28.25;21.90;36.00;;;;;;109998;1254;49275;-61
2023/02/17 02:29:00;;;;;;;;;34.75;30.25;21.80;35.40;;;;;;110067;1250;50853;-60
2023/02/17 02:31:27;;;;;;;;;29.75;28.00;21.80;35.30;;;;;;110080;1254;46284;-61
2023/02/17 02:34:06;;;;;;;;;28.00;24.50;21.80;35.60;;;;;;110111;1251;56548;-61
2023/02/17 02:36:37;;;;;;;;;39.33;31.33;21.70;35.30;;;;;;110031;1250;53746;-61
2023/02/17 02:39:15;;;;;;;;;28.00;26.50;21.70;35.10;;;;;;109975;1256;49950;-60
2023/02/17 02:41:46;;;;;;;;;32.00;28.00;21.70;35.10;;;;;;110047;1254;50554;-60
2023/02/17 02:44:14;;;;;;;;;33.67;28.67;21.60;35.00;;;;;;110105;1250;45700;-61
2023/02/17 02:46:41;;;;;;;;;29.00;24.00;21.60;35.00;;;;;;110099;1253;55746;-60
2023/02/17 02:49:09;;;;;;;;;28.00;25.00;21.60;35.00;;;;;;110041;1250;53849;-60
2023/02/17 02:52:03;;;;;;;;;33.00;30.00;21.60;35.20;;;;;;109995;1251;49698;-61
2023/02/17 02:54:55;;;;;;;;;30.00;28.00;21.60;35.00;;;;;;110139;1254;49994;-61
2023/02/17 02:57:47;;;;;;;;;35.00;29.00;21.50;35.00;;;;;;110192;1254;45769;-63
2023/02/17 03:00:43;;;;;;;;;32.50;27.00;21.50;35.10;;;;;;110082;1251;56334;-59
2023/02/17 03:03:19;;;;;;;;;27.00;25.00;21.50;35.00;;;;;;110120;1251;55061;-60
2023/02/17 03:06:02;;;;;;;;;32.00;30.00;21.50;35.00;;;;;;109953;1256;49123;-61
2023/02/17 03:08:37;;;;;;;;;28.00;27.00;21.50;35.10;;;;;;110177;1251;48848;-60
2023/02/17 03:11:04;;;;;;;;;33.00;30.33;21.50;35.10;;;;;;109937;1253;46039;-62
2023/02/17 03:13:38;;;;;;;;;36.33;30.67;21.50;34.90;;;;;;110175;1250;55875;-61
2023/02/17 03:16:06;;;;;;;;;34.00;30.00;21.40;34.90;;;;;;109937;1251;53280;-61
2023/02/17 03:18:35;;;;;;;;;33.00;29.67;21.40;34.90;;;;;;109888;1252;50139;-61
2023/02/17 03:21:09;;;;;;;;;31.50;27.50;21.40;34.80;;;;;;110040;1254;49257;-61
2023/02/17 03:23:36;;;;;;;;;35.50;28.00;21.40;34.90;;;;;;110005;1251;45443;-61
2023/02/17 03:26:03;;;;;;;;;29.00;28.00;21.40;34.90;;;;;;109966;1254;55631;-61
2023/02/17 03:28:30;;;;;;;;;32.00;30.33;21.40;34.90;;;;;;109963;1254;54957;-61
2023/02/17 03:30:57;;;;;;;;;29.00;26.00;21.40;34.90;;;;;;110105;1254;50129;-61
2023/02/17 03:33:24;;;;;;;;;33.00;26.50;21.30;34.80;;;;;;110041;1254;49783;-61
2023/02/17 03:35:54;;;;;;;;;29.50;27.50;21.30;34.90;;;;;;110015;1254;45393;-61
2023/02/17 03:38:21;;;;;;;;;32.00;27.00;21.30;34.90;;;;;;110027;1250;55377;-60
2023/02/17 03:40:48;;;;;;;;;27.50;26.50;21.30;35.10;;;;;;110008;1250;54944;-61
2023/02/17 03:43:15;;;;;;;;;33.00;30.00;21.20;34.80;;;;;;110049;1255;50104;-59
2023/02/17 03:45:41;;;;;;;;;31.00;27.00;21.20;34.90;;;;;;109845;1256;49666;-61
2023/02/17 03:48:08;;;;;;;;;35.00;31.00;21.20;34.90;;;;;;109903;1254;46336;-63
2023/02/17 03:50:35;;;;;;;;;33.00;28.50;21.20;34.90;;;;;;109929;1251;55888;-60
2023/02/17 03:53:03;;;;;;;;;29.00;27.67;21.20;35.00;;;;;;109958;1251;55032;-60
2023/02/17 03:55:30;;;;;;;;;35.00;28.00;21.20;35.00;;;;;;110005;1253;49804;-60
2023/02/17 03:57:57;;;;;;;;;31.67;29.33;21.10;34.90;;;;;;109921;1254;49236;-61
2023/02/17 04:00:24;;;;;;;;;31.00;28.50;21.10;34.90;;;;;;110048;1253;45424;-66
2023/02/17 04:02:51;;;;;;;;;29.00;27.00;21.10;35.10;;;;;;110104;1250;55616;-61
2023/02/17 04:05:18;;;;;;;;;30.00;25.50;21.10;35.00;;;;;;110177;1254;53796;-61
2023/02/17 04:07:45;;;;;;;;;34.00;28.67;21.10;35.10;;;;;;110241;1254;49625;-62
2023/02/17 04:10:12;;;;;;;;;32.00;29.00;21.10;35.10;;;;;;110230;1250;49610;-62
2023/02/17 04:12:39;;;;;;;;;32.33;28.67;21.10;35.10;;;;;;110040;1251;45529;-62
2023/02/17 04:15:07;;;;;;;;;31.00;25.33;21.20;35.40;;;;;;110103;1254;55295;-63
2023/02/17 04:17:37;;;;;;;;;28.00;25.00;21.20;35.20;;;;;;110023;1254;53378;-62
2023/02/17 04:20:06;;;;;;;;;32.25;29.00;21.30;35.30;;;;;;110135;1250;49759;-62
2023/02/17 04:22:32;;;;;;;;;29.00;27.00;21.30;35.10;;;;;;110090;1250;49003;-61
2023/02/17 04:24:59;;;;;;;;;30.00;28.00;21.40;35.20;;;;;;110117;1250;45819;-61
2023/02/17 04:27:26;;;;;;;;;28.00;26.00;21.50;35.30;;;;;;110094;1250;56260;-61
2023/02/17 04:29:53;;;;;;;;;28.00;26.00;21.60;35.30;;;;;;110113;1250;54331;-60
2023/02/17 04:32:20;;;;;;;;;29.67;24.00;21.60;35.40;;;;;;110091;1250;49886;-62
2023/02/17 04:34:47;;;;;;;;;32.00;29.00;21.70;36.30;;;;;;110064;1254;49059;-61
2023/02/17 04:37:14;;;;;;;;;37.00;27.00;21.80;37.20;;;;;;110038;1250;45314;-62
2023/02/17 04:39:41;;;;;;;;;26.50;23.50;21.90;36.70;;;;;;110244;1254;55158;-61
2023/02/17 04:42:08;;;;;;;;;29.00;25.00;21.90;37.40;;;;;;110097;1250;54259;-61
2023/02/17 04:44:35;;;;;;;;;32.50;26.50;22.00;37.50;;;;;;110100;1250;49430;-61
2023/02/17 04:47:02;;;;;;;;;28.75;25.25;22.10;37.60;;;;;;110067;1250;49098;-62
2023/02/17 04:49:29;;;;;;;;;27.00;26.00;22.20;37.50;;;;;;110175;1250;46276;-60
2023/02/17 04:51:55;;;;;;;;;30.00;28.00;22.30;37.50;;;;;;110054;1254;55382;-61
2023/02/17 04:54:23;;;;;;;;;27.00;25.00;22.30;37.60;;;;;;109900;1250;53425;-63
2023/02/17 04:56:50;;;;;;;;;28.25;26.50;22.40;37.40;;;;;;110093;1254;50593;-60
2023/02/17 04:59:17;;;;;;;;;29.00;22.00;22.50;37.40;;;;;;109958;1256;49805;-60
2023/02/17 05:01:44;;;;;;;;;26.00;24.75;22.60;37.30;;;;;;110037;1254;45675;-61
2023/02/17 05:04:10;;;;;;;;;27.00;25.33;22.70;37.50;;;;;;109863;1254;55423;-60
2023/02/17 05:06:37;;;;;;;;;32.00;26.00;22.80;37.50;;;;;;110123;1250;54439;-59
2023/02/17 05:09:04;;;;;;;;;58.50;40.00;22.90;37.60;;;;;;110175;1254;49372;-61
2023/02/17 05:11:31;;;;;;;;;60.50;45.00;23.00;39.60;;;;;;110230;1251;49407;-61
2023/02/17 05:13:58;;;;;;;;;50.33;38.33;23.00;40.70;;;;;;110116;1250;46535;-60
2023/02/17 05:16:25;;;;;;;;;48.50;37.50;23.10;40.00;;;;;;110148;1254;55329;-65
2023/02/17 05:18:52;;;;;;;;;35.00;30.50;23.20;39.50;;;;;;110314;1254;53846;-61
2023/02/17 05:21:19;;;;;;;;;46.00;35.00;23.20;39.10;;;;;;110154;1254;49252;-60
2023/02/17 05:23:46;;;;;;;;;62.00;43.00;23.30;38.80;;;;;;109892;1255;48972;-59
2023/02/17 05:26:13;;;;;;;;;48.00;38.00;23.30;38.70;;;;;;110041;1251;45511;-60
2023/02/17 05:28:40;;;;;;;;;46.33;37.00;23.30;38.60;;;;;;110042;1250;56270;-60
2023/02/17 05:31:07;;;;;;;;;47.67;32.67;23.40;38.50;;;;;;110059;1251;54236;-61
2023/02/17 05:33:33;;;;;;;;;44.00;34.00;23.40;38.30;;;;;;109814;1254;49414;-60
2023/02/17 05:36:08;;;;;;;;;47.00;34.00;23.40;38.10;;;;;;110193;1250;49216;-61
2023/02/17 05:38:36;;;;;;;;;48.00;35.00;23.40;37.90;;;;;;110152;1250;45540;-60
2023/02/17 05:41:03;;;;;;;;;39.67;31.33;23.50;37.80;;;;;;110157;1254;55182;-60
2023/02/17 05:43:31;;;;;;;;;46.50;33.50;23.60;38.00;;;;;;110130;1254;53912;-60
2023/02/17 05:46:02;;;;;;;;;43.00;34.00;23.60;38.20;;;;;;110129;1250;50079;-60
2023/02/17 05:48:29;;;;;;;;;41.00;33.00;23.60;38.30;;;;;;110159;1250;49033;-60
2023/02/17 05:50:56;;;;;;;;;46.00;34.00;23.70;38.20;;;;;;110095;1254;46191;-62
2023/02/17 05:53:23;;;;;;;;;40.50;32.00;23.80;37.90;;;;;;110104;1254;56189;-60
2023/02/17 05:55:50;;;;;;;;;43.33;33.33;23.90;38.00;;;;;;110172;1254;54683;-61
2023/02/17 05:58:17;;;;;;;;;44.50;35.50;23.90;37.90;;;;;;110070;1250;50681;-60
2023/02/17 06:00:47;;;;;;;;;37.67;32.67;24.00;37.90;;;;;;109980;1250;49537;-59
2023/02/17 06:03:14;;;;;;;;;41.00;30.75;24.00;38.00;;;;;;109993;1254;45489;-60
2023/02/17 06:05:41;;;;;;;;;42.50;32.00;24.20;37.70;;;;;;109908;1250;56606;-61
2023/02/17 06:08:08;;;;;;;;;36.67;29.00;24.20;37.50;;;;;;109958;1253;54637;-60
2023/02/17 06:10:35;;;;;;;;;37.67;33.00;24.30;37.50;;;;;;110068;1250;49168;-61
2023/02/17 06:13:02;;;;;;;;;45.50;34.50;24.40;37.50;;;;;;110184;1250;49676;-61
2023/02/17 06:15:29;;;;;;;;;43.00;32.00;24.40;37.20;;;;;;110514;1250;45460;-64
2023/02/17 06:17:56;;;;;;;;;33.00;29.50;24.50;37.40;;;;;;110076;1254;56129;-66
2023/02/17 06:20:23;;;;;;;;;32.00;27.00;24.60;37.30;;;;;;110395;1250;53768;-64
2023/02/17 06:22:50;;;;;;;;;33.67;28.00;24.60;37.20;;;;;;110024;1254;49127;-61
2023/02/17 06:25:17;;;;;;;;;37.00;32.00;24.70;37.20;;;;;;110087;1250;50012;-71
2023/02/17 06:27:44;;;;;;;;;33.00;29.00;24.70;38.30;;;;;;110329;1250;45480;-68
2023/02/17 06:30:12;;;;;;;;;29.50;26.50;24.80;37.60;;;;;;110219;1249;56072;-66
2023/02/17 06:32:39;;;;;;;;;31.50;28.00;24.90;37.20;;;;;;110071;1254;54384;-66
2023/02/17 06:35:06;;;;;;;;;39.50;29.00;24.90;37.10;;;;;;109971;1254;50022;-66
2023/02/17 06:37:33;;;;;;;;;34.50;31.00;24.90;37.20;;;;;;110222;1250;49779;-65
2023/02/17 06:40:00;;;;;;;;;32.00;29.00;25.00;37.30;;;;;;110045;1250;46806;-65
2023/02/17 06:42:27;;;;;;;;;34.50;29.00;25.00;37.20;;;;;;110111;1250;55691;-67
2023/02/17 06:44:54;;;;;;;;;43.00;33.00;25.00;37.10;;;;;;110444;1254;54166;-65
2023/02/17 06:47:21;;;;;;;;;31.00;28.67;25.10;37.20;;;;;;110131;1250;50094;-64
2023/02/17 06:49:47;;;;;;;;;35.00;32.00;25.10;36.80;;;;;;109950;1252;48969;-66
2023/02/17 06:52:14;;;;;;;;;35.50;29.50;25.20;37.00;;;;;;110015;1252;46164;-64
2023/02/17 06:54:41;;;;;;;;;41.00;33.00;25.20;36.70;;;;;;110070;1254;56143;-63
2023/02/17 06:57:08;;;;;;;;;37.00;32.00;25.20;36.80;;;;;;110206;1250;53702;-65
2023/02/17 06:59:35;;;;;;;;;31.00;29.00;25.20;36.60;;;;;;110050;1254;49449;-63
2023/02/17 07:02:02;;;;;;;;;36.00;31.00;25.20;36.60;;;;;;110149;1250;50585;-66
2023/02/17 07:04:29;;;;;;;;;34.00;29.00;25.20;36.30;;;;;;110656;1254;45423;-64
2023/02/17 07:06:56;;;;;;;;;32.50;28.00;25.20;36.20;;;;;;110064;1255;55795;-64
2023/02/17 07:09:23;;;;;;;;;33.00;30.00;25.20;36.10;;;;;;110069;1254;54008;-63
2023/02/17 07:11:50;;;;;;;;;34.00;29.00;25.20;36.20;;;;;;110049;1254;49736;-61
2023/02/17 07:14:17;;;;;;;;;39.00;31.00;25.20;36.00;;;;;;110160;1254;49349;-64
2023/02/17 07:16:43;;;;;;;;;32.75;27.75;25.10;36.00;;;;;;110249;1254;46750;-65
2023/02/17 07:19:12;;;;;;;;;37.00;31.25;25.20;35.70;;;;;;110420;1254;55313;-65
2023/02/17 07:21:39;;;;;;;;;34.00;28.00;25.10;35.20;;;;;;110081;1250;54097;-64
2023/02/17 07:24:06;;;;;;;;;34.00;30.00;25.10;35.10;;;;;;110169;1250;50834;-60
2023/02/17 07:26:37;;;;;;;;;35.50;31.50;25.00;35.20;;;;;;110115;1251;50716;-62
2023/02/17 07:29:06;;;;;;;;;37.00;32.00;25.00;35.10;;;;;;110275;1254;45668;-62
2023/02/17 07:31:33;;;;;;;;;37.00;30.33;24.90;34.80;;;;;;110270;1254;56959;-61
2023/02/17 07:34:01;;;;;;;;;38.00;32.00;24.90;34.90;;;;;;110265;1254;53703;-63
2023/02/17 07:36:29;;;;;;;;;31.00;27.50;24.90;35.00;;;;;;110242;1250;49868;-66
2023/02/17 07:38:56;;;;;;;;;32.00;29.00;24.90;35.00;;;;;;110204;1250;50175;-63
2023/02/17 07:41:27;;;;;;;;;35.67;31.00;24.80;35.20;;;;;;110425;1254;46600;-63
2023/02/17 07:43:55;;;;;;;;;32.67;29.00;24.80;34.80;;;;;;110407;1254;55885;-61
2023/02/17 07:46:23;;;;;;;;;34.25;31.00;24.70;34.90;;;;;;110133;1252;53468;-63
2023/02/17 07:48:50;;;;;;;;;32.00;29.00;24.70;34.60;;;;;;110068;1253;49621;-63
2023/02/17 07:51:20;;;;;;;;;38.33;34.00;24.70;34.60;;;;;;110266;1252;50445;-67
2023/02/17 07:53:48;;;;;;;;;33.00;28.75;24.70;34.50;;;;;;110569;1254;45758;-65
2023/02/17 07:56:17;;;;;;;;;40.50;34.00;24.60;34.40;;;;;;110196;1256;56044;-65
2023/02/17 07:58:44;;;;;;;;;37.50;31.25;24.60;34.50;;;;;;110390;1254;54227;-66
2023/02/17 08:01:20;;;;;;;;;34.00;30.00;24.60;34.70;;;;;;110479;1252;50145;-63
2023/02/17 08:03:48;;;;;;;;;36.00;32.00;24.60;34.90;;;;;;110360;1250;49603;-64
2023/02/17 08:06:21;;;;;;;;;39.50;31.50;24.60;35.50;;;;;;110460;1254;45942;-63
2023/02/17 08:14:29;;;;;;;;;27.25;26.25;24.80;35.60;;;;;;110562;1250;49292;-65
2023/02/17 08:16:57;;;;;;;;;36.00;29.50;24.90;35.50;;;;;;110384;1250;49027;-65
2023/02/17 08:19:25;;;;;;;;;34.00;30.00;25.00;35.70;;;;;;110245;1254;45956;-64
2023/02/17 08:21:52;;;;;;;;;35.50;31.00;25.10;35.50;;;;;;110435;1250;56655;-64
2023/02/17 08:24:20;;;;;;;;;37.50;31.50;25.20;35.70;;;;;;110577;1250;53167;-65
2023/02/17 08:26:48;;;;;;;;;38.33;30.33;25.20;36.00;;;;;;110159;1251;49423;-66
2023/02/17 08:29:16;;;;;;;;;49.00;41.00;25.30;35.50;;;;;;110048;1252;49693;-63
2023/02/17 08:31:43;;;;;;;;;56.33;45.00;25.40;31.30;;;;;;110264;1254;45387;-60
2023/02/17 08:34:11;;;;;;;;;54.00;45.00;25.20;29.20;;;;;;110144;1250;55785;-63
2023/02/17 08:36:39;;;;;;;;;58.00;45.00;;;;;;;;110170;1250;53532;-60
2023/02/17 08:39:10;;;;;;;;;64.00;48.50;24.80;27.10;;;;;;110128;1254;49469;-61
2023/02/17 08:41:38;;;;;;;;;60.33;47.33;24.60;27.60;;;;;;110066;1254;49187;-62
2023/02/17 08:44:13;;;;;;;;;60.67;46.00;24.40;27.40;;;;;;110280;1254;45900;-62
2023/02/17 08:46:40;;;;;;;;;63.00;50.00;24.30;27.10;;;;;;110323;1254;55182;-60
2023/02/17 08:49:07;;;;;;;;;58.50;46.50;24.10;27.50;;;;;;110160;1254;53513;-63
2023/02/17 08:51:35;;;;;;;;;51.00;41.00;24.00;28.20;;;;;;110035;1254;49713;-62
2023/02/17 08:54:04;;;;;;;;;50.00;40.00;24.00;30.20;;;;;;110253;1254;49686;-63
2023/02/17 08:56:32;;;;;;;;;50.00;41.00;24.10;31.60;;;;;;110193;1250;45862;-59
2023/02/17 08:58:59;;;;;;;;;48.00;38.00;24.30;32.00;;;;;;110115;1250;56325;-62
2023/02/17 09:01:26;;;;;;;;;50.00;41.00;24.50;32.30;;;;;;110178;1254;53337;-63
2023/02/17 09:03:56;;;;;;;;;43.00;37.00;24.70;32.70;;;;;;110147;1254;49699;-64
2023/02/17 09:06:23;;;;;;;;;47.00;39.00;24.90;32.90;;;;;;110230;1254;49958;-61
2023/02/17 09:08:50;;;;;;;;;45.00;37.00;25.00;33.20;;;;;;110120;1256;46095;-60
2023/02/17 09:11:19;;;;;;;;;45.00;38.00;25.20;32.90;;;;;;110312;1250;55346;-61
2023/02/17 09:13:46;;;;;;;;;46.50;35.50;25.30;33.30;;;;;;110112;1254;54552;-61
2023/02/17 09:16:13;;;;;;;;;48.00;39.00;25.50;33.20;;;;;;109998;1256;49450;-65
2023/02/17 09:18:40;;;;;;;;;46.00;36.00;25.60;33.50;;;;;;110211;1250;49406;-61
2023/02/17 09:21:10;;;;;;;;;47.00;36.00;25.70;33.80;;;;;;110338;1254;46147;-61
2023/02/17 09:23:38;;;;;;;;;41.00;33.00;25.90;33.60;;;;;;110119;1250;55821;-61
2023/02/17 09:26:08;;;;;;;;;43.50;36.75;26.00;33.80;;;;;;110110;1250;53566;-62
2023/02/17 09:28:35;;;;;;;;;39.00;33.00;26.10;33.60;;;;;;110095;1250;50369;-62
2023/02/17 09:31:13;;;;;;;;;39.00;33.00;26.20;33.60;;;;;;110079;1252;50544;-63
2023/02/17 09:33:41;;;;;;;;;48.00;38.00;26.30;34.20;;;;;;110158;1250;46565;-65
2023/02/17 09:36:11;;;;;;;;;38.00;32.00;26.40;33.60;;;;;;110230;1250;55900;-63
2023/02/17 09:38:39;;;;;;;;;44.67;35.67;26.50;33.90;;;;;;110147;1250;53888;-61
2023/02/17 09:41:36;;;;;;;;;40.00;34.00;26.60;34.00;;;;;;109972;1253;49324;-63
2023/02/17 09:44:06;;;;;;;;;41.00;35.75;26.70;33.80;;;;;;110037;1256;49755;-59
2023/02/17 09:46:47;;;;;;;;;39.00;34.00;26.80;34.40;;;;;;110340;1250;45964;-65
2023/02/17 09:49:20;;;;;;;;;44.50;34.00;26.90;33.90;;;;;;110108;1250;56159;-62
2023/02/17 09:51:59;;;;;;;;;41.33;34.00;27.00;33.90;;;;;;110016;1252;54412;-61
2023/02/17 09:54:36;;;;;;;;;43.50;32.50;27.10;33.90;;;;;;110057;1252;49800;-62
2023/02/17 09:57:05;;;;;;;;;39.75;33.25;27.20;34.00;;;;;;110012;1256;50060;-61
2023/02/17 09:59:41;;;;;;;;;37.00;33.00;27.20;33.70;;;;;;109972;1253;45287;-62
2023/02/17 10:02:16;;;;;;;;;37.00;32.00;27.30;33.70;;;;;;110223;1254;55198;-62
2023/02/17 10:04:46;;;;;;;;;41.00;31.50;27.30;33.80;;;;;;110077;1253;54377;-66
2023/02/17 10:07:27;;;;;;;;;33.00;30.00;27.30;33.70;;;;;;110111;1250;49550;-68
2023/02/17 10:10:10;;;;;;;;;35.50;32.00;27.40;33.60;;;;;;110253;1250;49098;-65
2023/02/17 10:12:42;;;;;;;;;40.00;32.50;27.50;33.70;;;;;;109936;1254;45187;-65
2023/02/17 10:15:15;;;;;;;;;40.50;33.00;27.60;34.40;;;;;;110090;1250;55891;-65
2023/02/17 10:17:51;;;;;;;;;39.00;34.00;27.60;33.50;;;;;;110142;1254;53867;-71
2023/02/17 10:20:40;;;;;;;;;41.00;33.00;27.70;33.40;;;;;;110233;1254;50832;-65
2023/02/17 10:23:16;;;;;;;;;45.00;36.00;27.80;33.10;;;;;;110209;1254;50614;-70
2023/02/17 10:26:03;;;;;;;;;42.67;35.00;27.70;32.90;;;;;;110022;1253;45541;-64
2023/02/17 10:28:39;;;;;;;;;46.00;36.50;27.70;33.00;;;;;;110040;1254;55099;-68
2023/02/17 10:31:29;;;;;;;;;46.25;38.25;27.80;32.80;;;;;;110084;1250;53841;-67
2023/02/17 10:34:03;;;;;;;;;49.00;40.00;27.70;32.50;;;;;;109950;1254;49305;-68
2023/02/17 10:36:59;;;;;;;;;48.00;37.00;27.70;32.50;;;;;;110191;1252;49867;-65
2023/02/17 10:39:29;;;;;;;;;45.00;36.00;27.80;32.50;;;;;;110060;1250;45983;-66
2023/02/17 10:41:56;;;;;;;;;48.75;40.00;27.80;32.60;;;;;;110138;1254;55585;-66
2023/02/17 10:44:24;;;;;;;;;38.67;32.67;27.80;32.20;;;;;;110111;1254;53714;-67
2023/02/17 10:46:53;;;;;;;;;45.00;35.00;27.80;32.40;;;;;;110053;1254;49720;-68
2023/02/17 10:49:28;;;;;;;;;45.33;36.67;27.80;32.30;;;;;;110110;1250;49708;-67
2023/02/17 10:52:01;;;;;;;;;47.33;35.00;27.80;32.00;;;;;;110358;1251;46128;-66
2023/02/17 10:54:37;;;;;;;;;48.00;38.00;27.80;32.00;;;;;;110136;1252;56258;-67
2023/02/17 10:57:07;;;;;;;;;44.00;34.00;27.80;31.80;;;;;;110178;1254;53882;-66
2023/02/17 10:59:39;;;;;;;;;48.00;38.00;27.80;31.70;;;;;;110048;1253;49143;-66
2023/02/17 11:02:18;;;;;;;;;42.00;35.00;27.80;31.60;;;;;;110231;1250;49908;-67
2023/02/17 11:04:48;;;;;;;;;43.00;35.00;27.80;31.60;;;;;;110145;1254;45373;-66
2023/02/17 11:07:18;;;;;;;;;48.00;35.00;27.80;31.60;;;;;;110174;1250;55884;-68
2023/02/17 11:09:48;;;;;;;;;47.00;34.00;27.70;31.70;;;;;;110124;1254;54202;-66
2023/02/17 11:12:20;;;;;;;;;48.00;39.00;27.60;31.40;;;;;;110093;1250;50262;-68
2023/02/17 11:14:51;;;;;;;;;45.00;35.00;27.60;31.40;;;;;;110080;1250;49438;-67
2023/02/17 11:17:38;;;;;;;;;45.50;36.00;27.50;31.30;;;;;;110104;1250;46161;-67
2023/02/17 11:20:34;;;;;;;;;46.50;35.50;27.50;31.30;;;;;;110144;1254;55877;-65
2023/02/17 11:23:04;;;;;;;;;48.00;37.00;27.40;31.30;;;;;;110098;1253;54005;-65
2023/02/17 11:25:33;;;;;;;;;48.00;39.00;27.40;31.50;;;;;;110478;1254;50153;-66
2023/02/17 11:28:04;;;;;;;;;45.00;35.00;27.40;31.40;;;;;;110065;1250;50498;-66
2023/02/17 11:30:33;;;;;;;;;45.00;37.00;27.40;31.30;;;;;;110133;1254;45445;-66
2023/02/17 11:33:14;;;;;;;;;47.00;36.00;27.30;31.30;;;;;;110113;1250;57065;-69
2023/02/17 11:35:41;;;;;;;;;45.25;33.75;27.20;31.40;;;;;;110118;1254;55185;-65
2023/02/17 11:38:17;;;;;;;;;44.00;35.00;27.10;31.60;;;;;;110181;1250;49645;-63
2023/02/17 11:40:56;;;;;;;;;49.00;39.00;27.10;31.70;;;;;;110215;1254;49238;-66
2023/02/17 11:43:23;;;;;;;;;45.00;36.00;27.00;32.00;;;;;;110552;1250;46211;-68
2023/02/17 11:46:12;;;;;;;;;46.67;38.67;26.90;32.00;;;;;;110226;1251;56187;-70
2023/02/17 11:49:20;;;;;;;;;41.67;34.33;26.80;31.80;;;;;;110372;1250;54008;-67
2023/02/17 11:52:08;;;;;;;;;50.00;37.00;26.80;32.00;;;;;;110136;1254;49302;-65
2023/02/17 11:55:05;;;;;;;;;42.00;32.00;26.70;32.00;;;;;;110081;1250;49800;-64
2023/02/17 11:57:39;;;;;;;;;46.00;36.00;26.70;32.00;;;;;;110078;1254;47781;-68
2023/02/17 12:00:24;;;;;;;;;45.00;37.00;26.60;32.00;;;;;;110150;1250;56396;-70
2023/02/17 12:03:10;;;;;;;;;45.00;36.50;26.50;32.00;;;;;;110117;1254;54309;-71
2023/02/17 12:06:14;;;;;;;;;44.00;36.00;26.50;32.20;;;;;;110595;1250;49889;-70
2023/02/17 12:09:02;;;;;;;;;39.00;32.00;26.40;31.90;;;;;;110169;1254;49711;-68
2023/02/17 12:11:48;;;;;;;;;44.50;35.50;26.40;32.10;;;;;;110323;1254;45835;-69
2023/02/17 12:14:25;;;;;;;;;48.50;36.50;26.30;31.90;;;;;;110175;1254;56393;-70
2023/02/17 12:17:31;;;;;;;;;44.00;37.50;26.30;32.10;;;;;;110173;1250;55125;-71
2023/02/17 12:20:06;;;;;;;;;41.00;33.00;26.20;32.00;;;;;;110284;1250;49629;-66
2023/02/17 12:23:03;;;;;;;;;46.00;35.00;26.20;32.10;;;;;;110108;1254;49466;-66
2023/02/17 12:25:36;;;;;;;;;44.00;37.00;26.10;31.90;;;;;;110618;1251;45270;-69
2023/02/17 12:28:29;;;;;;;;;37.00;30.67;26.10;32.30;;;;;;110035;1253;56634;-69
2023/02/17 12:30:59;;;;;;;;;39.50;32.75;26.10;32.10;;;;;;109994;1253;53829;-69
2023/02/17 12:33:42;;;;;;;;;39.00;33.00;26.10;32.30;;;;;;110139;1254;50401;-67
2023/02/17 12:36:14;;;;;;;;;35.50;30.00;26.00;32.20;;;;;;110177;1250;48897;-67
2023/02/17 12:38:53;;;;;;;;;40.00;34.00;26.00;32.30;;;;;;110274;1250;45849;-68
2023/02/17 12:41:25;;;;;;;;;39.00;32.00;25.90;32.30;;;;;;110056;1254;56670;-67
2023/02/17 12:43:56;;;;;;;;;42.50;35.00;25.90;32.20;;;;;;110076;1252;54469;-69